Time;durP1;ratioP1;P1;durP2;ratioP2;P2;SDS_P1;SDS_P2;PMS_P1;PMS_P2;Temp;Humidity;BMP_temperature;BMP_pressure;BME280_temperature;BME280_humidity;BME280_pressure;Samples;Min_cycle;Max_cycle;Signal;HPM_P1;HPM_P2
2021/10/30 00:01:41;;;;;;;9.90;9.00;;;12.90;99.90;;;;;;5071709;28;20658;-67
2021/10/30 00:04:07;;;;;;;10.40;9.33;;;12.90;99.90;;;;;;5071466;28;20178;-66
2021/10/30 00:06:32;;;;;;;10.10;9.23;;;12.80;99.90;;;;;;5071376;28;20293;-66
2021/10/30 00:08:58;;;;;;;10.93;9.93;;;12.80;99.90;;;;;;5071594;28;20210;-65
2021/10/30 00:11:24;;;;;;;10.03;9.23;;;12.80;99.90;;;;;;5071590;28;20537;-66
2021/10/30 00:13:49;;;;;;;9.97;9.10;;;12.80;99.90;;;;;;5071575;28;20170;-66
2021/10/30 00:16:18;;;;;;;9.90;9.10;;;12.80;99.90;;;;;;5071702;28;20194;-66
2021/10/30 00:18:44;;;;;;;10.00;9.13;;;12.80;99.90;;;;;;5071630;28;20178;-66
2021/10/30 00:21:09;;;;;;;10.93;9.93;;;12.70;99.90;;;;;;5071159;28;20207;-66
2021/10/30 00:23:35;;;;;;;9.07;8.40;;;12.70;99.90;;;;;;5071521;28;20213;-65
2021/10/30 00:26:00;;;;;;;9.80;9.00;;;12.60;99.90;;;;;;5071432;28;20627;-64
2021/10/30 00:28:26;;;;;;;10.70;9.73;;;12.60;99.90;;;;;;5071341;28;20197;-67
2021/10/30 00:30:51;;;;;;;10.20;9.33;;;12.60;99.90;;;;;;5071252;28;20185;-66
2021/10/30 00:33:17;;;;;;;9.87;9.07;;;12.60;99.90;;;;;;5071504;28;20178;-66
2021/10/30 00:35:43;;;;;;;11.30;10.07;;;12.60;99.90;;;;;;5071756;28;20186;-66
2021/10/30 00:38:08;;;;;;;10.50;9.60;;;12.70;99.90;;;;;;5071569;28;20601;-67
2021/10/30 00:40:34;;;;;;;10.20;9.07;;;12.70;99.90;;;;;;5070987;28;20273;-66
2021/10/30 00:43:00;;;;;;;9.67;8.77;;;12.70;99.90;;;;;;5071500;28;20202;-67
2021/10/30 00:45:25;;;;;;;9.77;8.87;;;12.70;99.90;;;;;;5071326;28;20692;-66
2021/10/30 00:47:51;;;;;;;10.07;9.17;;;12.70;99.90;;;;;;5071460;28;20732;-67
2021/10/30 00:50:17;;;;;;;10.27;8.90;;;12.70;99.90;;;;;;5071094;28;20190;-66
2021/10/30 00:52:45;;;;;;;9.60;8.80;;;12.70;99.90;;;;;;5071050;28;20243;-67
2021/10/30 00:55:12;;;;;;;9.50;8.60;;;12.70;99.90;;;;;;5070402;28;20228;-66
2021/10/30 00:57:40;;;;;;;10.00;9.17;;;12.60;99.90;;;;;;5071033;28;20220;-65
2021/10/30 01:00:07;;;;;;;9.47;8.57;;;12.50;99.90;;;;;;5071219;28;20189;-65
2021/10/30 01:02:33;;;;;;;9.33;8.43;;;12.50;99.90;;;;;;5071259;28;20227;-66
2021/10/30 01:04:59;;;;;;;11.53;9.60;;;12.40;99.90;;;;;;5071053;28;20178;-65
2021/10/30 01:07:25;;;;;;;10.43;9.50;;;12.40;99.90;;;;;;5071267;28;20206;-66
2021/10/30 01:09:52;;;;;;;9.50;8.63;;;12.40;99.90;;;;;;5070799;28;20170;-65
2021/10/30 01:12:18;;;;;;;9.13;8.37;;;12.30;99.90;;;;;;5071606;28;20657;-65
2021/10/30 01:14:45;;;;;;;9.53;8.77;;;12.30;99.90;;;;;;5071262;28;20185;-66
2021/10/30 01:17:11;;;;;;;9.50;8.53;;;12.30;99.90;;;;;;5073070;28;20274;-66
2021/10/30 01:19:36;;;;;;;9.60;8.03;;;12.30;99.90;;;;;;5074691;28;20206;-66
2021/10/30 01:22:03;;;;;;;10.67;9.20;;;12.30;99.90;;;;;;5074175;28;20202;-67
2021/10/30 01:24:29;;;;;;;11.17;9.53;;;12.20;99.90;;;;;;5074596;28;20169;-66
2021/10/30 01:26:55;;;;;;;9.63;8.63;;;12.20;99.90;;;;;;5074449;28;20206;-66
2021/10/30 01:29:21;;;;;;;10.27;9.30;;;12.20;99.90;;;;;;5074489;28;20198;-66
2021/10/30 01:31:50;;;;;;;10.43;9.33;;;12.20;99.90;;;;;;5074107;28;20182;-66
2021/10/30 01:34:16;;;;;;;10.83;9.73;;;12.20;99.90;;;;;;5074537;28;20186;-66
2021/10/30 01:36:42;;;;;;;9.60;8.70;;;12.10;99.90;;;;;;5074468;28;20475;-66
2021/10/30 01:39:09;;;;;;;10.30;9.50;;;12.10;99.90;;;;;;5074250;28;20232;-66
2021/10/30 01:41:36;;;;;;;10.00;8.80;;;12.10;99.90;;;;;;5074037;28;20668;-65
2021/10/30 01:44:03;;;;;;;9.13;8.27;;;12.10;99.90;;;;;;5074344;28;20190;-66
2021/10/30 01:46:28;;;;;;;9.77;8.97;;;12.10;99.90;;;;;;5074323;28;20209;-66
2021/10/30 01:48:54;;;;;;;9.80;8.90;;;12.10;99.90;;;;;;5073983;28;20747;-66
2021/10/30 01:51:22;;;;;;;9.37;8.63;;;12.10;99.90;;;;;;5074450;28;20174;-67
2021/10/30 01:53:48;;;;;;;10.83;8.77;;;12.10;99.90;;;;;;5074084;28;20220;-66
2021/10/30 01:56:15;;;;;;;9.53;8.63;;;12.10;99.90;;;;;;5074281;28;20611;-66
2021/10/30 01:58:41;;;;;;;9.90;9.03;;;12.00;99.90;;;;;;5074165;28;20170;-67
2021/10/30 02:01:07;;;;;;;9.10;8.37;;;12.10;99.90;;;;;;5073785;28;20213;-67
2021/10/30 02:03:34;;;;;;;10.07;9.17;;;12.10;99.90;;;;;;5073953;28;20753;-66
2021/10/30 02:06:01;;;;;;;9.10;8.20;;;12.00;99.90;;;;;;5074140;28;20186;-66
2021/10/30 02:08:28;;;;;;;10.10;9.20;;;12.00;99.90;;;;;;5073676;28;20201;-65
2021/10/30 02:10:54;;;;;;;10.00;9.00;;;12.10;99.90;;;;;;5072706;28;20185;-66
2021/10/30 02:13:20;;;;;;;9.47;8.67;;;12.00;99.90;;;;;;5073894;28;20186;-65
2021/10/30 02:15:46;;;;;;;9.40;8.50;;;12.00;99.90;;;;;;5073912;28;20328;-66
2021/10/30 02:18:12;;;;;;;8.83;7.93;;;12.00;99.90;;;;;;5073728;28;20644;-65
2021/10/30 02:20:38;;;;;;;9.63;8.73;;;11.90;99.90;;;;;;5073273;28;20189;-64
2021/10/30 02:23:04;;;;;;;9.17;8.33;;;12.00;99.90;;;;;;5072357;28;20182;-66
2021/10/30 02:25:30;;;;;;;8.47;7.70;;;11.90;99.90;;;;;;5073973;28;20287;-66
2021/10/30 02:27:55;;;;;;;8.37;7.77;;;11.90;99.90;;;;;;5072782;28;20214;-66
2021/10/30 02:30:22;;;;;;;8.40;7.57;;;11.90;99.90;;;;;;5073263;28;20185;-66
2021/10/30 02:32:48;;;;;;;9.13;8.33;;;11.90;99.90;;;;;;5073442;28;20272;-66
2021/10/30 02:35:13;;;;;;;8.83;8.13;;;11.90;99.90;;;;;;5073415;28;20360;-66
2021/10/30 02:37:40;;;;;;;8.47;7.67;;;11.90;99.90;;;;;;5073585;28;20177;-66
2021/10/30 02:40:07;;;;;;;10.77;7.80;;;12.00;99.90;;;;;;5073690;28;20170;-66
2021/10/30 02:42:33;;;;;;;9.30;8.50;;;11.90;99.90;;;;;;5053939;28;20175;-65
2021/10/30 02:45:00;;;;;;;8.03;7.43;;;11.90;99.90;;;;;;5053384;28;20614;-66
2021/10/30 02:47:26;;;;;;;8.40;7.70;;;12.00;99.90;;;;;;5071974;28;20259;-66
2021/10/30 02:49:52;;;;;;;8.80;8.10;;;12.00;99.90;;;;;;5072683;28;20249;-66
2021/10/30 02:52:17;;;;;;;9.00;8.23;;;12.00;99.90;;;;;;5072997;28;20273;-66
2021/10/30 02:54:43;;;;;;;9.10;8.20;;;12.00;99.90;;;;;;5071327;28;20567;-66
2021/10/30 02:57:08;;;;;;;8.53;7.83;;;12.10;99.90;;;;;;5072996;28;20251;-65
2021/10/30 02:59:34;;;;;;;9.10;8.20;;;12.00;99.90;;;;;;5072202;28;20545;-66
2021/10/30 03:02:00;;;;;;;9.53;8.83;;;12.10;99.90;;;;;;5073045;28;20185;-66
2021/10/30 03:04:25;;;;;;;9.07;8.17;;;12.10;99.90;;;;;;5072249;28;20189;-64
2021/10/30 03:06:51;;;;;;;8.80;8.10;;;12.10;99.90;;;;;;5072698;28;20278;-65
2021/10/30 03:09:17;;;;;;;8.83;8.13;;;12.20;99.90;;;;;;5072215;28;20210;-66
2021/10/30 03:11:43;;;;;;;8.60;7.90;;;12.10;99.90;;;;;;5072635;28;20177;-67
2021/10/30 03:14:08;;;;;;;8.83;8.23;;;12.10;99.90;;;;;;5072301;28;20456;-66
2021/10/30 03:16:34;;;;;;;8.40;7.70;;;12.10;99.90;;;;;;5072305;28;20243;-66
2021/10/30 03:19:00;;;;;;;8.53;7.80;;;12.10;99.90;;;;;;5071982;28;20185;-66
2021/10/30 03:21:25;;;;;;;9.57;8.67;;;12.00;99.90;;;;;;5072295;28;20201;-65
2021/10/30 03:23:51;;;;;;;8.47;7.77;;;12.00;99.90;;;;;;5072178;28;20188;-66
2021/10/30 03:26:17;;;;;;;8.67;7.97;;;12.00;99.90;;;;;;5072404;28;20717;-66
2021/10/30 03:28:43;;;;;;;8.53;7.77;;;12.00;99.90;;;;;;5071949;28;20264;-66
2021/10/30 03:31:08;;;;;;;9.47;8.70;;;11.90;99.90;;;;;;5071922;28;20170;-67
2021/10/30 03:33:34;;;;;;;8.20;7.60;;;11.90;99.90;;;;;;5071802;28;20589;-66
2021/10/30 03:35:59;;;;;;;9.73;8.93;;;11.80;99.90;;;;;;5071950;28;20194;-66
2021/10/30 03:38:25;;;;;;;9.20;8.43;;;11.70;99.90;;;;;;5070410;28;20188;-66
2021/10/30 03:40:51;;;;;;;9.87;9.07;;;11.60;99.90;;;;;;5071115;28;20174;-67
2021/10/30 03:43:16;;;;;;;9.07;8.37;;;11.60;99.90;;;;;;5072743;28;20603;-66
2021/10/30 03:45:42;;;;;;;10.30;9.30;;;11.50;99.90;;;;;;5072416;28;20686;-66
2021/10/30 03:48:08;;;;;;;9.40;8.67;;;11.40;99.90;;;;;;5072206;28;20202;-65
2021/10/30 03:50:35;;;;;;;9.60;8.90;;;11.30;99.90;;;;;;5071212;28;20185;-65
2021/10/30 03:53:01;;;;;;;9.70;8.90;;;11.30;99.90;;;;;;5072049;28;20584;-66
2021/10/30 03:55:27;;;;;;;9.50;8.80;;;11.20;99.90;;;;;;5071368;28;20194;-65
2021/10/30 03:57:53;;;;;;;9.17;8.47;;;11.10;99.90;;;;;;5071771;28;20189;-65
2021/10/30 04:00:19;;;;;;;10.07;9.27;;;11.10;99.90;;;;;;5071080;28;20214;-65
2021/10/30 04:02:45;;;;;;;9.87;9.10;;;11.10;99.90;;;;;;5071410;28;20166;-65
2021/10/30 04:05:11;;;;;;;9.57;8.77;;;11.00;99.90;;;;;;5071453;28;20182;-65
2021/10/30 04:07:36;;;;;;;9.20;8.53;;;11.00;99.90;;;;;;5071636;28;20292;-65
2021/10/30 04:10:03;;;;;;;10.90;9.80;;;11.00;99.90;;;;;;5071098;28;20178;-66
2021/10/30 04:12:29;;;;;;;11.87;9.90;;;11.00;99.90;;;;;;5071293;28;20174;-65
2021/10/30 04:14:54;;;;;;;10.47;9.67;;;11.00;99.90;;;;;;5071330;28;20232;-66
2021/10/30 04:17:20;;;;;;;9.17;8.47;;;11.00;99.90;;;;;;5071706;28;20198;-66
2021/10/30 04:19:45;;;;;;;10.03;9.13;;;11.00;99.90;;;;;;5070817;28;20230;-66
2021/10/30 04:22:11;;;;;;;9.87;8.80;;;11.10;99.90;;;;;;5071575;28;20177;-67
2021/10/30 04:24:37;;;;;;;8.97;8.27;;;11.00;99.90;;;;;;5070748;28;20178;-65
2021/10/30 04:27:03;;;;;;;10.43;9.53;;;11.10;99.90;;;;;;5071469;28;20267;-66
2021/10/30 04:29:29;;;;;;;11.50;9.27;;;11.10;99.90;;;;;;5070828;28;20399;-66
2021/10/30 04:31:57;;;;;;;11.07;10.07;;;11.10;99.90;;;;;;5071563;28;20174;-66
2021/10/30 04:34:40;;;;;;;9.83;9.03;;;11.00;99.90;;;;;;5071403;28;20182;-67
2021/10/30 04:37:13;;;;;;;9.77;8.97;;;11.00;99.90;;;;;;5071747;28;20659;-66
2021/10/30 04:39:39;;;;;;;11.40;10.33;;;11.00;99.90;;;;;;5071546;28;20255;-66
2021/10/30 04:42:05;;;;;;;10.53;9.67;;;11.00;99.90;;;;;;5071753;28;20202;-66
2021/10/30 04:44:30;;;;;;;10.93;9.93;;;11.00;99.90;;;;;;5071088;28;20186;-66
2021/10/30 04:46:56;;;;;;;9.67;8.77;;;11.00;99.90;;;;;;5071166;28;20210;-66
2021/10/30 04:49:22;;;;;;;9.70;9.00;;;11.00;99.90;;;;;;5070512;28;20248;-67
2021/10/30 04:51:47;;;;;;;9.87;8.90;;;11.00;99.90;;;;;;5074258;28;20549;-67
2021/10/30 04:54:13;;;;;;;10.03;9.13;;;11.10;99.90;;;;;;5075298;28;20182;-67
2021/10/30 04:56:38;;;;;;;10.33;9.43;;;11.10;99.90;;;;;;5074922;28;20186;-66
2021/10/30 04:59:04;;;;;;;9.40;8.67;;;11.10;99.90;;;;;;5074861;28;20170;-65
2021/10/30 05:01:30;;;;;;;9.97;9.27;;;11.10;99.90;;;;;;5075051;28;20260;-65
2021/10/30 05:03:55;;;;;;;9.33;8.60;;;11.10;99.90;;;;;;5075071;28;20182;-66
2021/10/30 05:06:21;;;;;;;9.50;8.80;;;11.20;99.90;;;;;;5074707;28;20222;-66
2021/10/30 05:08:46;;;;;;;9.53;8.63;;;11.20;99.90;;;;;;5074709;28;20231;-66
2021/10/30 05:11:12;;;;;;;8.83;8.23;;;11.20;99.90;;;;;;5074443;28;20209;-66
2021/10/30 05:13:37;;;;;;;9.63;8.63;;;11.30;99.90;;;;;;5074860;28;20413;-65
2021/10/30 05:16:03;;;;;;;9.77;8.97;;;11.30;99.90;;;;;;5074456;28;20213;-66
2021/10/30 05:18:29;;;;;;;9.37;8.50;;;11.30;99.90;;;;;;5074560;28;20249;-66
2021/10/30 05:20:55;;;;;;;9.73;9.10;;;11.30;99.90;;;;;;5074202;28;20194;-65
2021/10/30 05:23:21;;;;;;;9.20;8.40;;;11.40;99.90;;;;;;5074670;28;20183;-65
2021/10/30 05:25:47;;;;;;;8.47;7.87;;;11.40;99.90;;;;;;5074189;28;20208;-66
2021/10/30 05:28:13;;;;;;;9.63;8.83;;;11.50;99.90;;;;;;5074632;28;20666;-65
2021/10/30 05:30:38;;;;;;;8.80;8.20;;;11.50;99.90;;;;;;5073873;28;20181;-67
2021/10/30 05:33:04;;;;;;;9.07;8.37;;;11.50;99.90;;;;;;5074572;28;20163;-66
2021/10/30 05:35:29;;;;;;;8.37;7.77;;;11.60;99.90;;;;;;5074139;28;20713;-66
2021/10/30 05:37:55;;;;;;;8.77;8.17;;;11.60;99.90;;;;;;5074621;28;20170;-65
2021/10/30 05:40:21;;;;;;;8.83;8.13;;;11.70;99.90;;;;;;5073853;28;20185;-66
2021/10/30 05:42:46;;;;;;;9.03;8.43;;;11.70;99.90;;;;;;5073960;28;20638;-66
2021/10/30 05:45:12;;;;;;;8.87;8.23;;;11.70;99.90;;;;;;5074162;28;20257;-66
2021/10/30 05:47:38;;;;;;;9.63;8.63;;;11.70;99.90;;;;;;5073940;28;20198;-66
2021/10/30 05:50:05;;;;;;;8.90;8.20;;;11.80;99.90;;;;;;5074132;28;20202;-67
2021/10/30 05:52:31;;;;;;;8.17;7.60;;;11.80;99.90;;;;;;5074387;28;20181;-66
2021/10/30 05:54:57;;;;;;;8.50;7.90;;;11.80;99.90;;;;;;5073912;28;20186;-66
2021/10/30 05:57:24;;;;;;;9.00;8.17;;;11.80;99.90;;;;;;5074387;28;20204;-66
2021/10/30 05:59:49;;;;;;;9.17;8.37;;;11.80;99.90;;;;;;5073572;28;20189;-67
2021/10/30 06:02:15;;;;;;;10.50;9.60;;;11.90;99.90;;;;;;5072823;28;20178;-66
2021/10/30 06:04:42;;;;;;;9.87;9.20;;;11.90;99.90;;;;;;5073561;28;20166;-66
2021/10/30 06:07:09;;;;;;;8.93;8.33;;;11.90;99.90;;;;;;5073882;28;20213;-65
2021/10/30 06:09:34;;;;;;;8.43;7.93;;;11.90;99.90;;;;;;5072036;28;20213;-66
2021/10/30 06:12:00;;;;;;;9.23;8.47;;;11.90;99.90;;;;;;5073518;28;20185;-66
2021/10/30 06:14:26;;;;;;;8.80;8.10;;;11.90;99.90;;;;;;5073906;28;20690;-65
2021/10/30 06:16:52;;;;;;;8.87;8.07;;;11.90;99.90;;;;;;5073362;28;20202;-65
2021/10/30 06:19:18;;;;;;;9.23;7.97;;;11.90;99.90;;;;;;5073558;28;20202;-65
2021/10/30 06:21:43;;;;;;;8.90;8.27;;;11.90;99.90;;;;;;5073647;28;20267;-66
2021/10/30 06:24:09;;;;;;;9.13;8.43;;;12.00;99.90;;;;;;5073615;28;20659;-66
2021/10/30 06:26:35;;;;;;;8.30;7.70;;;12.00;99.90;;;;;;5073075;28;20198;-66
2021/10/30 06:29:00;;;;;;;8.60;7.67;;;12.10;99.90;;;;;;5072923;28;20205;-66
2021/10/30 06:31:26;;;;;;;8.50;7.90;;;12.10;99.90;;;;;;5073423;28;20202;-66
2021/10/30 06:33:52;;;;;;;7.80;7.30;;;12.20;99.90;;;;;;5072495;28;20182;-66
2021/10/30 06:36:18;;;;;;;8.43;7.77;;;12.20;99.90;;;;;;5071742;28;20619;-66
2021/10/30 06:38:44;;;;;;;8.33;7.83;;;12.30;99.90;;;;;;5073264;28;20186;-66
2021/10/30 06:41:12;;;;;;;8.30;7.50;;;12.30;99.90;;;;;;5072402;28;20178;-66
2021/10/30 06:43:38;;;;;;;7.73;7.33;;;12.40;99.90;;;;;;5073151;28;20170;-66
2021/10/30 06:46:04;;;;;;;8.57;7.87;;;12.40;99.90;;;;;;5072805;28;20595;-66
2021/10/30 06:48:30;;;;;;;7.10;6.70;;;12.40;99.90;;;;;;5072416;28;20197;-66
2021/10/30 06:50:56;;;;;;;8.93;7.57;;;12.40;99.90;;;;;;5072510;28;20174;-67
2021/10/30 06:53:22;;;;;;;7.70;7.10;;;12.40;99.90;;;;;;5072474;28;20178;-66
2021/10/30 06:55:49;;;;;;;7.53;6.97;;;12.50;99.90;;;;;;5072694;28;20186;-66
2021/10/30 06:58:18;;;;;;;8.00;7.43;;;12.50;99.90;;;;;;5072658;28;20274;-66
2021/10/30 07:00:45;;;;;;;8.30;7.77;;;12.50;99.90;;;;;;5072261;28;20262;-66
2021/10/30 07:03:10;;;;;;;7.90;7.40;;;12.60;99.90;;;;;;5072859;28;20307;-66
2021/10/30 07:05:36;;;;;;;8.67;7.87;;;12.60;99.90;;;;;;5072421;28;20286;-66
2021/10/30 07:08:03;;;;;;;7.93;7.30;;;12.60;99.90;;;;;;5072547;28;20212;-66
2021/10/30 07:10:29;;;;;;;8.60;7.90;;;12.60;99.90;;;;;;5072372;28;20178;-67
2021/10/30 07:12:54;;;;;;;8.20;7.70;;;12.60;99.90;;;;;;5072593;28;20183;-67
2021/10/30 07:15:20;;;;;;;9.00;8.23;;;12.50;99.90;;;;;;5071291;28;20183;-66
2021/10/30 07:17:46;;;;;;;8.07;7.47;;;12.60;99.90;;;;;;5072436;28;20272;-66
2021/10/30 07:20:12;;;;;;;8.63;7.77;;;12.50;99.90;;;;;;5072163;28;20261;-66
2021/10/30 07:22:46;;;;;;;7.90;7.30;;;12.50;99.90;;;;;;5070588;28;20197;-64
2021/10/30 07:25:13;;;;;;;8.70;7.80;;;12.50;99.90;;;;;;5071973;28;20213;-64
2021/10/30 07:27:39;;;;;;;7.80;7.30;;;12.50;99.90;;;;;;5071905;28;20271;-66
2021/10/30 07:30:06;;;;;;;8.33;7.63;;;12.50;99.90;;;;;;5072028;28;20177;-66
2021/10/30 07:32:32;;;;;;;8.80;8.07;;;12.50;99.90;;;;;;5071734;28;20182;-64
2021/10/30 07:34:58;;;;;;;8.17;7.47;;;12.50;99.90;;;;;;5072011;28;20714;-65
2021/10/30 07:37:24;;;;;;;8.43;7.83;;;12.40;99.90;;;;;;5072052;28;20212;-65
2021/10/30 07:39:50;;;;;;;9.43;8.73;;;12.40;99.90;;;;;;5071477;28;20249;-64
2021/10/30 07:42:16;;;;;;;8.47;7.77;;;12.40;99.90;;;;;;5072167;28;20174;-65
2021/10/30 07:44:41;;;;;;;8.80;8.10;;;12.40;99.90;;;;;;5072279;28;20174;-66
2021/10/30 07:47:07;;;;;;;9.30;8.60;;;12.30;99.90;;;;;;5072666;28;20213;-65
2021/10/30 07:49:34;;;;;;;9.40;7.97;;;12.30;99.90;;;;;;5072227;28;20213;-66
2021/10/30 07:52:08;;;;;;;8.33;7.73;;;12.30;99.90;;;;;;5072201;28;20643;-66
2021/10/30 07:54:34;;;;;;;8.70;8.00;;;12.30;99.90;;;;;;5073133;28;20193;-66
2021/10/30 07:57:02;;;;;;;8.47;7.80;;;12.30;99.90;;;;;;5072351;28;20723;-65
2021/10/30 07:59:28;;;;;;;9.17;8.47;;;12.30;99.90;;;;;;5071588;28;20186;-66
2021/10/30 08:01:53;;;;;;;8.77;8.13;;;12.30;99.90;;;;;;5071306;28;20190;-65
2021/10/30 08:04:20;;;;;;;8.30;7.60;;;12.30;99.90;;;;;;5070698;28;20411;-65
2021/10/30 08:06:46;;;;;;;8.83;8.17;;;12.30;99.90;;;;;;5071037;28;20227;-66
2021/10/30 08:09:11;;;;;;;9.20;8.40;;;12.30;99.90;;;;;;5071262;28;20726;-66
2021/10/30 08:11:37;;;;;;;9.47;8.60;;;12.40;99.90;;;;;;5070252;28;20292;-65
2021/10/30 08:14:03;;;;;;;9.07;8.27;;;12.40;99.90;;;;;;5071675;28;20546;-66
2021/10/30 08:16:29;;;;;;;9.07;8.40;;;12.30;99.90;;;;;;5071073;28;20536;-65
2021/10/30 08:18:55;;;;;;;9.27;8.57;;;12.20;99.90;;;;;;5070965;28;20222;-66
2021/10/30 08:21:21;;;;;;;9.20;8.37;;;12.20;99.90;;;;;;5071487;28;20177;-66
2021/10/30 08:23:47;;;;;;;9.43;8.63;;;12.10;99.90;;;;;;5071482;28;20543;-66
2021/10/30 08:26:13;;;;;;;9.03;8.33;;;12.00;99.90;;;;;;5069663;28;20198;-66
2021/10/30 08:28:39;;;;;;;10.67;9.57;;;11.90;99.90;;;;;;5071180;28;20228;-66
2021/10/30 08:31:05;;;;;;;9.37;8.67;;;11.90;99.90;;;;;;5071274;28;20231;-66
2021/10/30 08:33:30;;;;;;;8.80;8.10;;;11.80;99.90;;;;;;5071999;28;20174;-66
2021/10/30 08:35:56;;;;;;;9.53;8.63;;;11.80;99.90;;;;;;5071347;28;20198;-67
2021/10/30 08:38:21;;;;;;;9.07;8.37;;;11.80;99.90;;;;;;5071745;28;20205;-65
2021/10/30 08:40:47;;;;;;;9.67;8.97;;;11.80;99.90;;;;;;5068160;28;20625;-67
2021/10/30 08:43:21;;;;;;;9.20;8.50;;;11.90;99.90;;;;;;5071661;28;20547;-67
2021/10/30 08:45:49;;;;;;;10.07;9.17;;;11.90;99.90;;;;;;5070865;28;20205;-67
2021/10/30 08:48:14;;;;;;;9.73;9.00;;;11.90;99.90;;;;;;5071337;28;20335;-66
2021/10/30 08:50:40;;;;;;;9.37;8.67;;;11.90;99.90;;;;;;5070882;28;20190;-66
2021/10/30 08:53:06;;;;;;;8.93;8.23;;;12.00;99.90;;;;;;5071170;28;20232;-67
2021/10/30 08:55:32;;;;;;;10.20;9.20;;;12.00;99.90;;;;;;5070036;28;20193;-67
2021/10/30 08:58:12;;;;;;;9.17;8.47;;;12.10;99.90;;;;;;5069284;28;20178;-66
2021/10/30 09:00:50;;;;;;;9.00;8.40;;;12.10;99.90;;;;;;5071130;28;20182;-66
2021/10/30 09:03:19;;;;;;;11.53;8.70;;;12.20;99.90;;;;;;5064627;28;20592;-67
2021/10/30 09:05:47;;;;;;;8.93;8.23;;;12.20;99.90;;;;;;5070769;28;20194;-65
2021/10/30 09:08:14;;;;;;;8.73;8.03;;;12.20;99.90;;;;;;5050956;28;20198;-67
2021/10/30 09:10:45;;;;;;;8.53;7.83;;;12.30;99.90;;;;;;5050563;28;20171;-66
2021/10/30 09:13:12;;;;;;;8.27;7.67;;;12.40;99.90;;;;;;5068442;28;20531;-66
2021/10/30 09:15:40;;;;;;;8.50;7.90;;;12.50;99.90;;;;;;5070640;28;20663;-67
2021/10/30 09:18:18;;;;;;;8.80;8.00;;;12.50;99.90;;;;;;5070653;28;20170;-66
2021/10/30 09:20:48;;;;;;;8.80;8.00;;;12.60;99.90;;;;;;5070482;28;20178;-67
2021/10/30 09:23:14;;;;;;;7.73;7.07;;;12.60;99.90;;;;;;5070739;28;20177;-67
2021/10/30 09:25:54;;;;;;;8.40;7.63;;;12.60;99.90;;;;;;5070938;28;20242;-66
2021/10/30 09:28:25;;;;;;;8.07;7.37;;;12.70;99.90;;;;;;5070700;28;20194;-66
2021/10/30 09:31:00;;;;;;;7.37;6.87;;;12.80;99.90;;;;;;5069859;28;20174;-67
2021/10/30 09:33:28;;;;;;;7.80;7.03;;;12.90;99.90;;;;;;5070878;28;20578;-66
2021/10/30 09:35:54;;;;;;;7.77;7.17;;;13.00;99.90;;;;;;5070276;28;20186;-67
2021/10/30 09:38:30;;;;;;;8.33;7.63;;;13.00;99.90;;;;;;5073102;28;20174;-66
2021/10/30 09:40:56;;;;;;;8.53;7.93;;;12.90;99.90;;;;;;5075387;28;20170;-66
2021/10/30 09:43:22;;;;;;;8.73;7.93;;;12.90;99.90;;;;;;5074650;28;20178;-67
2021/10/30 09:45:51;;;;;;;9.33;8.53;;;12.90;99.90;;;;;;5097095;22;20204;-66
2021/10/30 09:48:22;;;;;;;7.90;7.20;;;12.90;99.90;;;;;;5074263;28;20565;-65
2021/10/30 09:50:52;;;;;;;8.77;8.07;;;12.90;99.90;;;;;;5073572;28;20174;-65
2021/10/30 09:53:39;;;;;;;8.07;7.47;;;12.80;99.90;;;;;;5074131;28;20655;-65
2021/10/30 09:56:07;;;;;;;8.20;7.60;;;12.80;99.90;;;;;;5073698;28;20193;-66
2021/10/30 09:58:36;;;;;;;9.30;8.47;;;12.80;99.90;;;;;;5073763;28;20239;-66
2021/10/30 10:01:05;;;;;;;9.13;8.27;;;12.70;99.90;;;;;;5073670;28;20236;-66
2021/10/30 10:03:32;;;;;;;8.83;8.13;;;12.70;99.90;;;;;;5073654;28;20280;-65
2021/10/30 10:06:01;;;;;;;9.37;8.53;;;12.70;99.90;;;;;;5074033;28;20205;-65
2021/10/30 10:08:27;;;;;;;9.00;8.30;;;12.70;99.90;;;;;;5073580;28;20202;-66
2021/10/30 10:10:55;;;;;;;8.83;8.10;;;12.70;99.90;;;;;;5073116;28;20174;-65
2021/10/30 10:13:22;;;;;;;9.17;8.47;;;12.70;99.90;;;;;;5073728;28;20231;-65
2021/10/30 10:15:50;;;;;;;9.23;8.43;;;12.70;99.90;;;;;;5073223;28;20223;-66
2021/10/30 10:18:16;;;;;;;9.60;8.80;;;12.70;99.90;;;;;;5072919;28;20220;-65
2021/10/30 10:20:42;;;;;;;9.63;8.83;;;12.60;99.90;;;;;;5072608;28;20177;-65
2021/10/30 10:23:08;;;;;;;9.50;8.70;;;12.60;99.90;;;;;;5073474;28;20182;-65
2021/10/30 10:25:35;;;;;;;8.80;8.10;;;12.50;99.90;;;;;;5072740;28;20174;-65
2021/10/30 10:28:36;;;;;;;9.40;8.60;;;12.50;99.90;;;;;;5073452;28;20208;-65
2021/10/30 10:31:22;;;;;;;10.07;9.13;;;12.40;99.90;;;;;;5072449;28;20233;-66
2021/10/30 10:34:09;;;;;;;9.60;8.70;;;12.40;99.90;;;;;;5073299;28;20166;-65
2021/10/30 10:36:37;;;;;;;9.43;8.73;;;12.40;99.90;;;;;;5053119;28;20193;-65
2021/10/30 10:39:03;;;;;;;10.17;9.47;;;12.40;99.90;;;;;;5053777;28;20174;-65
2021/10/30 10:41:37;;;;;;;9.40;8.37;;;12.40;99.90;;;;;;5073120;28;20181;-65
2021/10/30 10:44:11;;;;;;;9.60;8.80;;;12.40;99.90;;;;;;5072862;28;20235;-65
2021/10/30 10:46:58;;;;;;;9.40;8.60;;;12.40;99.90;;;;;;5072725;28;20675;-65
2021/10/30 10:49:30;;;;;;;9.80;9.00;;;12.30;99.90;;;;;;5071608;28;20201;-65
2021/10/30 10:52:25;;;;;;;9.60;8.80;;;12.30;99.90;;;;;;5072704;28;20321;-66
2021/10/30 10:55:01;;;;;;;9.00;8.13;;;12.30;99.90;;;;;;5072448;28;20185;-66
2021/10/30 10:57:43;;;;;;;9.90;9.10;;;12.30;99.90;;;;;;5072832;28;20658;-65
2021/10/30 11:00:18;;;;;;;9.73;8.93;;;12.30;99.90;;;;;;5052540;28;20174;-66
2021/10/30 11:02:46;;;;;;;10.33;9.23;;;12.30;99.90;;;;;;5053006;28;20484;-66
2021/10/30 11:05:17;;;;;;;10.13;9.33;;;12.30;99.90;;;;;;5051229;28;20178;-66
2021/10/30 11:07:49;;;;;;;9.97;8.97;;;12.30;99.90;;;;;;5052446;28;20202;-66
2021/10/30 11:10:30;;;;;;;9.37;8.63;;;12.30;99.90;;;;;;5052393;28;20178;-65
2021/10/30 11:13:02;;;;;;;10.03;9.23;;;12.30;99.90;;;;;;5051812;28;20174;-66
2021/10/30 11:15:40;;;;;;;10.63;9.20;;;12.30;99.90;;;;;;5072383;28;20643;-66
2021/10/30 11:18:10;;;;;;;10.17;9.27;;;12.30;99.90;;;;;;5071169;28;20647;-66
2021/10/30 11:20:44;;;;;;;10.00;9.13;;;12.20;99.90;;;;;;5072021;28;20178;-66
2021/10/30 11:23:20;;;;;;;10.43;9.57;;;12.30;99.90;;;;;;5071949;28;20172;-66
2021/10/30 11:26:04;;;;;;;10.77;9.77;;;12.30;99.90;;;;;;5072507;28;20579;-66
2021/10/30 11:28:34;;;;;;;11.07;9.97;;;12.20;99.90;;;;;;5071979;28;20201;-66
2021/10/30 11:31:11;;;;;;;10.07;9.23;;;12.30;99.90;;;;;;5072017;28;20628;-66
2021/10/30 11:33:39;;;;;;;10.37;9.57;;;12.20;99.90;;;;;;5071728;28;20185;-65
2021/10/30 11:36:07;;;;;;;10.80;9.70;;;12.20;99.90;;;;;;5071907;28;20681;-66
2021/10/30 11:38:46;;;;;;;11.37;10.47;;;12.20;99.90;;;;;;5071458;28;20228;-65
2021/10/30 11:41:32;;;;;;;9.93;9.03;;;12.20;99.90;;;;;;5071297;28;20174;-65
2021/10/30 11:44:07;;;;;;;8.93;8.33;;;12.20;99.90;;;;;;5071951;28;20260;-65
2021/10/30 11:46:45;;;;;;;11.37;9.87;;;12.20;99.90;;;;;;5071445;28;20213;-65
2021/10/30 11:49:32;;;;;;;10.03;9.33;;;12.20;99.90;;;;;;5071628;28;20564;-66
2021/10/30 11:52:07;;;;;;;11.10;10.30;;;12.20;99.90;;;;;;5071396;28;20238;-65
2021/10/30 11:54:33;;;;;;;11.20;10.23;;;12.30;99.90;;;;;;5060933;28;20581;-66
2021/10/30 11:57:08;;;;;;;10.57;9.77;;;12.30;99.90;;;;;;5051765;28;20197;-66
2021/10/30 11:59:34;;;;;;;9.77;9.07;;;12.40;99.90;;;;;;5061055;28;20239;-65
2021/10/30 12:02:00;;;;;;;10.40;9.40;;;12.40;99.90;;;;;;5071871;28;20170;-66
2021/10/30 12:04:37;;;;;;;8.63;7.93;;;12.50;99.90;;;;;;5071534;28;20193;-65
2021/10/30 12:07:05;;;;;;;8.50;7.80;;;12.50;99.90;;;;;;5071597;28;20197;-66
2021/10/30 12:09:39;;;;;;;8.37;7.77;;;12.50;99.90;;;;;;5070965;28;20202;-65
2021/10/30 12:12:19;;;;;;;9.10;8.30;;;12.50;99.90;;;;;;5071710;28;20649;-65
2021/10/30 12:14:47;;;;;;;8.97;8.27;;;12.60;99.90;;;;;;5071219;28;20527;-65
2021/10/30 12:17:20;;;;;;;8.00;7.50;;;12.60;99.90;;;;;;5070177;28;20278;-65
2021/10/30 12:19:55;;;;;;;8.33;7.73;;;12.70;99.90;;;;;;5070709;28;20188;-65
2021/10/30 12:22:24;;;;;;;8.00;7.30;;;12.80;99.90;;;;;;5071555;28;20169;-65
2021/10/30 12:25:08;;;;;;;7.57;7.07;;;12.80;99.90;;;;;;5071160;28;20182;-65
2021/10/30 12:27:49;;;;;;;7.83;7.23;;;13.00;99.90;;;;;;5071096;28;20221;-65
2021/10/30 12:30:21;;;;;;;8.50;7.80;;;13.10;99.90;;;;;;5070608;28;20174;-66
2021/10/30 12:32:48;;;;;;;8.00;7.50;;;13.20;99.90;;;;;;5071231;28;20177;-66
2021/10/30 12:35:19;;;;;;;7.43;6.20;;;13.30;99.90;;;;;;5070688;28;20181;-65
2021/10/30 12:37:46;;;;;;;7.70;7.10;;;13.50;99.90;;;;;;5070973;28;20316;-65
2021/10/30 12:40:12;;;;;;;7.00;6.50;;;13.50;99.90;;;;;;5070624;28;20206;-65
2021/10/30 12:42:37;;;;;;;8.17;7.57;;;13.70;99.90;;;;;;5070294;28;20231;-65
2021/10/30 12:45:04;;;;;;;5.93;5.53;;;13.90;99.90;;;;;;5070443;28;20170;-65
2021/10/30 12:47:32;;;;;;;5.90;5.50;;;14.10;99.90;;;;;;5069493;28;20217;-66
2021/10/30 12:50:01;;;;;;;5.87;5.57;;;14.20;99.90;;;;;;5069872;28;20168;-65